createdAt,value
2023-05-10T00:04:17.245Z,12.9746
2023-05-10T00:09:29.366Z,12.96387
2023-05-10T00:14:41.459Z,12.9317
2023-05-10T00:19:53.636Z,12.89952
2023-05-10T00:25:05.820Z,12.85662
2023-05-10T00:30:18.258Z,12.83517
2023-05-10T00:35:30.888Z,12.80299
2023-05-10T00:40:43.066Z,12.77082
2023-05-10T00:45:55.222Z,12.77082
2023-05-10T00:51:07.345Z,12.73864
2023-05-10T00:56:20.240Z,12.68502
2023-05-10T01:01:32.377Z,12.63139
2023-05-10T01:06:44.551Z,12.57777
2023-05-10T01:12:00.086Z,12.49197
2023-05-10T01:17:12.298Z,12.43834
2023-05-10T01:22:24.598Z,12.37399
2023-05-10T01:27:36.809Z,12.32037
2023-05-10T01:32:49.522Z,12.26674
2023-05-10T01:38:05.627Z,12.22384
2023-05-10T01:43:17.734Z,12.17022
2023-05-10T01:48:29.892Z,12.11659
2023-05-10T01:53:42.251Z,12.08442
2023-05-10T01:58:54.378Z,12.03079
2023-05-10T02:04:07.158Z,11.99861
2023-05-10T02:09:19.333Z,11.93426
2023-05-10T02:14:31.508Z,11.86991
2023-05-10T02:19:43.686Z,11.82701
2023-05-10T02:24:55.799Z,11.77338
2023-05-10T02:30:07.923Z,11.74121
2023-05-10T02:35:20.073Z,11.69831
2023-05-10T02:40:32.270Z,11.62323
2023-05-10T02:45:44.519Z,11.56961
2023-05-10T02:50:56.734Z,11.52671
2023-05-10T02:56:08.984Z,11.49453
2023-05-10T03:01:21.125Z,11.46236
2023-05-10T03:06:33.283Z,11.46236
2023-05-10T03:11:45.404Z,11.44091
2023-05-10T03:16:57.522Z,11.43018
2023-05-10T03:22:09.639Z,11.43018
2023-05-10T03:27:21.737Z,11.44091
2023-05-10T03:32:33.916Z,11.43018
2023-05-10T03:37:46.022Z,11.40873
2023-05-10T03:42:58.132Z,11.41946
2023-05-10T03:48:10.265Z,11.41946
2023-05-10T03:53:22.569Z,11.43018
2023-05-10T03:58:34.687Z,11.43018
2023-05-10T04:03:47.599Z,11.40873
2023-05-10T04:08:59.872Z,11.40873
2023-05-10T04:14:12.982Z,11.40873
2023-05-10T04:19:25.094Z,11.40873
2023-05-10T04:24:37.217Z,11.41946
2023-05-10T04:29:49.340Z,11.44091
2023-05-10T04:35:01.523Z,11.46236
2023-05-10T04:40:13.702Z,11.48381
2023-05-10T04:45:25.874Z,11.51598
2023-05-10T04:50:38.067Z,11.54816
2023-05-10T04:55:50.188Z,11.59106
2023-05-10T05:01:02.917Z,11.64468
2023-05-10T05:06:19.235Z,11.71976
2023-05-10T05:11:31.416Z,11.81629
2023-05-10T05:16:43.694Z,11.91281
2023-05-10T05:21:55.935Z,11.98789
2023-05-10T05:27:08.124Z,12.09514
2023-05-10T05:32:20.235Z,12.18094
2023-05-10T05:37:32.350Z,12.27747
2023-05-10T05:37:44.410Z,12.28819
2023-05-10T05:42:56.522Z,12.36327
2023-05-10T05:48:08.655Z,12.48124
2023-05-10T05:53:20.960Z,12.56704
2023-05-10T05:58:33.088Z,12.67429
2023-05-10T06:03:45.361Z,12.78154
2023-05-10T06:08:57.724Z,12.95315
2023-05-10T06:14:09.898Z,13.0175
2023-05-10T06:19:24.762Z,13.13547
2023-05-10T06:24:38.672Z,13.26418
2023-05-10T06:29:56.366Z,13.41433
2023-05-10T06:35:11.514Z,13.5323
2023-05-10T06:40:23.621Z,13.62883
2023-05-10T06:45:35.757Z,13.69318
2023-05-10T06:50:47.872Z,13.82188
2023-05-10T06:56:00.052Z,13.89695
2023-05-10T07:01:12.344Z,14.02566
2023-05-10T07:06:32.980Z,14.18653
2023-05-10T07:11:46.022Z,14.45466
2023-05-10T07:16:58.163Z,14.62626
2023-05-10T07:22:10.282Z,14.75496
2023-05-10T07:27:22.471Z,14.89439
2023-05-10T07:32:35.704Z,15.08744
2023-05-10T07:37:50.898Z,15.18397
2023-05-10T07:43:03.049Z,15.28049
2023-05-10T07:48:15.172Z,15.47355
2023-05-10T07:53:32.403Z,15.68805
2023-05-10T07:58:44.524Z,15.65587
2023-05-10T08:03:56.698Z,15.85965
2023-05-10T08:09:08.906Z,16.0956
2023-05-10T08:14:21.139Z,16.37445
2023-05-10T08:19:33.261Z,16.44953
2023-05-10T08:24:45.369Z,16.71766
2023-05-10T08:29:57.496Z,16.95361
2023-05-10T08:35:10.796Z,16.99651
2023-05-10T08:40:23.442Z,17.09303
2023-05-10T08:45:35.652Z,17.26463
2023-05-10T08:50:47.866Z,17.35043
2023-05-10T08:56:05.131Z,17.51131
2023-05-10T09:01:17.423Z,17.68291
2023-05-10T09:06:29.708Z,17.71509
2023-05-10T09:11:41.880Z,17.69364
2023-05-10T09:16:54.037Z,17.75799
2023-05-10T09:17:06.212Z,17.75799
2023-05-10T09:22:18.450Z,17.73654
2023-05-10T09:27:30.553Z,17.65074
2023-05-10T09:32:42.804Z,17.56494
2023-05-10T09:37:55.970Z,17.70436
2023-05-10T09:43:10.085Z,17.94032
2023-05-10T09:48:23.434Z,17.92959
2023-05-10T09:53:35.560Z,18.24062
2023-05-10T09:58:47.615Z,18.50874
2023-05-10T10:03:59.840Z,18.81978
2023-05-10T10:09:12.157Z,19.09863
2023-05-10T10:14:24.347Z,19.34531
2023-05-10T10:19:36.909Z,19.76358
2023-05-10T10:24:49.531Z,20.02099
2023-05-10T10:30:02.098Z,20.26766
2023-05-10T10:35:14.474Z,20.66449
2023-05-10T10:40:26.932Z,21.15784
2023-05-10T10:45:40.209Z,20.10679
2023-05-10T10:50:54.066Z,20.18186
2023-05-10T10:56:06.287Z,19.57053
2023-05-10T11:01:18.562Z,18.72325
2023-05-10T11:06:30.706Z,17.76871
2023-05-10T11:11:42.816Z,17.59711
2023-05-10T11:16:55.140Z,17.10376
2023-05-10T11:22:07.831Z,16.50315
2023-05-10T11:27:19.879Z,16.1814
2023-05-10T11:32:32.058Z,15.89182
2023-05-10T11:37:44.214Z,15.95617
2023-05-10T11:42:56.402Z,16.08487
2023-05-10T11:48:08.573Z,16.29938
2023-05-10T11:53:21.250Z,16.50315
2023-05-10T11:58:33.376Z,16.92143
2023-05-10T12:03:45.932Z,17.35043
2023-05-10T12:08:58.178Z,17.68291
2023-05-10T12:14:12.570Z,18.07974
2023-05-10T12:19:25.035Z,18.25134
2023-05-10T12:24:37.255Z,18.4444
2023-05-10T12:29:49.530Z,18.4444
2023-05-10T12:35:02.516Z,18.54092
2023-05-10T12:40:14.795Z,18.75542
2023-05-10T12:45:27.086Z,18.7018
2023-05-10T12:50:39.220Z,18.77687
2023-05-10T12:55:51.328Z,19.04501
2023-05-10T13:01:04.049Z,19.31313
2023-05-10T13:06:16.358Z,19.10935
2023-05-10T13:11:28.569Z,19.40965
2023-05-10T13:16:40.714Z,19.52763
2023-05-10T13:21:52.853Z,19.72068
2023-05-10T13:27:04.974Z,19.72068
2023-05-10T13:32:17.091Z,19.91373
2023-05-10T13:37:29.832Z,20.06389
2023-05-10T13:42:41.949Z,20.06389
2023-05-10T13:47:54.089Z,20.17113
2023-05-10T13:53:06.405Z,20.25694
2023-05-10T13:58:18.705Z,20.33202
2023-05-10T14:03:30.940Z,20.63232
2023-05-10T14:08:43.258Z,20.69667
2023-05-10T14:13:55.518Z,20.70739
2023-05-10T14:19:08.291Z,20.76102
2023-05-10T14:24:20.542Z,20.86827
2023-05-10T14:29:32.659Z,20.9219
2023-05-10T14:34:45.283Z,21.16857
2023-05-10T14:39:57.438Z,21.29727
2023-05-10T14:45:09.563Z,21.32944
2023-05-10T14:50:35.092Z,21.55467
2023-05-10T14:55:48.910Z,21.71555
2023-05-10T15:01:01.129Z,21.3509
2023-05-10T15:06:13.806Z,20.9648
2023-05-10T15:11:25.928Z,20.95407
2023-05-10T15:16:38.103Z,20.49289
2023-05-10T15:21:50.246Z,20.25694
2023-05-10T15:27:02.613Z,20.34274
2023-05-10T15:32:14.795Z,20.31056
2023-05-10T15:37:27.033Z,20.11752
2023-05-10T15:42:39.148Z,20.03171
2023-05-10T15:47:51.371Z,19.89229
2023-05-10T15:53:06.313Z,19.83866
2023-05-10T15:58:18.427Z,19.78503
2023-05-10T16:03:30.601Z,19.88156
2023-05-10T16:08:42.810Z,19.86011
2023-05-10T16:13:55.091Z,19.78503
2023-05-10T16:19:07.729Z,19.75286
2023-05-10T16:24:22.448Z,19.63488
2023-05-10T16:29:34.643Z,19.37748
2023-05-10T16:34:46.833Z,19.19515
2023-05-10T16:39:59.673Z,19.14153
2023-05-10T16:45:11.922Z,18.68035
2023-05-10T16:50:24.038Z,18.187
2023-05-10T16:55:36.206Z,17.85452
2023-05-10T17:00:48.329Z,17.24319
2023-05-10T17:06:00.449Z,16.81418
2023-05-10T17:11:12.748Z,16.51388
2023-05-10T17:16:25.497Z,16.353
2023-05-10T17:21:37.807Z,16.1385
2023-05-10T17:26:50.044Z,16.02052
2023-05-10T17:32:02.897Z,15.67732
2023-05-10T17:37:15.212Z,15.50572
2023-05-10T17:42:27.398Z,15.14107
2023-05-10T17:47:40.120Z,14.98019
2023-05-10T17:52:52.708Z,14.79786
2023-05-10T17:58:07.061Z,14.64771
2023-05-10T18:03:19.164Z,14.51901
2023-05-10T18:08:31.282Z,14.32596
2023-05-10T18:13:48.053Z,14.18653
2023-05-10T18:19:00.518Z,14.03638
2023-05-10T18:24:26.520Z,13.85405
2023-05-10T18:29:49.600Z,13.68245
2023-05-10T18:35:07.231Z,13.56448
2023-05-10T18:40:19.355Z,13.4465
2023-05-10T18:45:31.456Z,13.32853
2023-05-10T18:50:43.749Z,13.1891
2023-05-10T18:55:56.179Z,13.0604
2023-05-10T19:01:08.372Z,12.8888
2023-05-10T19:06:21.007Z,12.74937
2023-05-10T19:11:33.110Z,12.63139
2023-05-10T19:16:45.243Z,12.51342
2023-05-10T19:21:57.379Z,12.42762
2023-05-10T19:27:09.495Z,12.30964
2023-05-10T19:32:23.076Z,12.22384
2023-05-10T19:37:35.248Z,12.15949
2023-05-10T19:42:48.187Z,12.08442
2023-05-10T19:48:00.428Z,11.98789
2023-05-10T19:53:12.505Z,11.90209
2023-05-10T19:58:24.615Z,11.79483
2023-05-10T20:03:36.878Z,11.71976
2023-05-10T20:08:49.002Z,11.63396
2023-05-10T20:14:01.114Z,11.54816
2023-05-10T20:19:13.412Z,11.48381
2023-05-10T20:24:26.121Z,11.44091
2023-05-10T20:29:38.255Z,11.36583
2023-05-10T20:34:50.498Z,11.31221
2023-05-10T20:40:02.687Z,11.24786
2023-05-10T20:45:15.250Z,11.20496
2023-05-10T20:50:27.368Z,11.15133
2023-05-10T20:55:40.562Z,11.10843
2023-05-10T21:00:57.684Z,11.06553
2023-05-10T21:06:11.157Z,11.00118
2023-05-10T21:11:23.413Z,10.94755
2023-05-10T21:16:35.643Z,10.91538
2023-05-10T21:21:48.022Z,10.8403
2023-05-10T21:27:00.152Z,10.76523
2023-05-10T21:32:12.433Z,10.70087
2023-05-10T21:37:24.717Z,10.6258
2023-05-10T21:42:36.835Z,10.56145
2023-05-10T21:47:48.961Z,10.4971
2023-05-10T21:53:01.096Z,10.43275
2023-05-10T21:58:13.193Z,10.3684
2023-05-10T22:03:25.668Z,10.31477
2023-05-10T22:08:38.170Z,10.29332
2023-05-10T22:13:50.282Z,10.2397
2023-05-10T22:19:02.769Z,10.20752
2023-05-10T22:24:15.035Z,10.16462
2023-05-10T22:29:27.197Z,10.13245
2023-05-10T22:34:39.381Z,10.10027
2023-05-10T22:39:51.485Z,10.0681
2023-05-10T22:45:03.727Z,10.07882
2023-05-10T22:50:16.354Z,10.01447
2023-05-10T22:55:28.827Z,10.00375
2023-05-10T23:00:41.001Z,9.950119
2023-05-10T23:05:53.714Z,9.907219
2023-05-10T23:11:05.828Z,9.864319
2023-05-10T23:16:17.996Z,9.821419
2023-05-10T23:21:32.134Z,9.789242
2023-05-10T23:26:44.438Z,9.746342
2023-05-10T23:31:56.625Z,9.714169
2023-05-10T23:37:10.109Z,9.714169
2023-05-10T23:42:22.359Z,9.681992
2023-05-10T23:47:34.585Z,9.681992
2023-05-10T23:52:46.912Z,9.671268
2023-05-10T23:57:59.031Z,9.671268
